Time;durP1;ratioP1;P1;durP2;ratioP2;P2;SDS_P1;SDS_P2;PMS_P1;PMS_P2;Temp;Humidity;BMP_temperature;BMP_pressure;BME280_temperature;BME280_humidity;BME280_pressure;Samples;Min_cycle;Max_cycle;Signal;HPM_P1;HPM_P2
2022/08/20 00:00:35;;;;;;;;;;;20.10;87.90;;;;;;5056327;28;20274;-94
2022/08/20 00:03:02;;;;;;;;;;;20.00;87.90;;;;;;5056196;28;19945;-94
2022/08/20 00:05:31;;;;;;;;;;;20.00;87.80;;;;;;5056364;28;20030;-94
2022/08/20 00:07:57;;;;;;;;;;;20.00;87.80;;;;;;5056171;28;19964;-94
2022/08/20 00:10:24;;;;;;;;;;;20.00;87.70;;;;;;5056197;28;20398;-95
2022/08/20 00:12:49;;;;;;;;;;;20.00;87.50;;;;;;5056050;28;20402;-94
2022/08/20 00:15:20;;;;;;;;;;;20.00;87.50;;;;;;5038154;28;20055;-94
2022/08/20 00:17:50;;;;;;;;;;;20.00;87.60;;;;;;5038372;28;19946;-94
2022/08/20 00:20:17;;;;;;;;;;;20.00;87.50;;;;;;5055705;28;20416;-94
2022/08/20 00:22:43;;;;;;;;;;;19.80;87.80;;;;;;5045508;28;19943;-94
2022/08/20 00:25:09;;;;;;;;;;;19.70;88.40;;;;;;5076150;28;19945;-94
2022/08/20 00:27:35;;;;;;;;;;;19.60;88.80;;;;;;5075761;28;19938;-95
2022/08/20 00:30:03;;;;;;;;;;;19.60;89.10;;;;;;5075944;28;20378;-94
2022/08/20 00:32:29;;;;;;;;;;;19.60;89.20;;;;;;5075806;28;19951;-94
2022/08/20 00:34:54;;;;;;;;;;;19.70;89.20;;;;;;5075499;28;20043;-94
2022/08/20 00:37:20;;;;;;;;;;;19.70;89.00;;;;;;5075280;28;19967;-95
2022/08/20 00:39:45;;;;;;;;;;;19.80;88.70;;;;;;5057713;28;19984;-95
2022/08/20 00:42:11;;;;;;;;;;;19.70;88.30;;;;;;5075601;28;20002;-95
2022/08/20 00:44:42;;;;;;;;;;;19.70;88.40;;;;;;5075534;28;19940;-95
2022/08/20 00:47:08;;;;;;;;;;;19.80;88.50;;;;;;5075583;28;19982;-94
2022/08/20 00:49:35;;;;;;;;;;;19.60;88.90;;;;;;5074359;28;20026;-94
2022/08/20 00:52:01;;;;;;;;;;;19.40;89.20;;;;;;5075351;28;19937;-95
2022/08/20 00:54:33;;;;;;;;;;;19.30;90.20;;;;;;5075410;28;19947;-94
2022/08/20 00:57:02;;;;;;;;;;;19.30;90.90;;;;;;5075288;28;19937;-94
2022/08/20 00:59:31;;;;;;;;;;;19.30;90.80;;;;;;5075488;28;19940;-94
2022/08/20 01:01:59;;;;;;;;;;;19.30;91.00;;;;;;5075314;28;19942;-95
2022/08/20 01:04:27;;;;;;;;;;;19.40;90.80;;;;;;5075220;28;19943;-94
2022/08/20 01:06:53;;;;;;;;;;;19.40;90.50;;;;;;5075198;28;19935;-95
2022/08/20 01:09:19;;;;;;;;;;;19.40;90.20;;;;;;5075142;28;20107;-94
2022/08/20 01:11:48;;;;;;;;;;;19.40;89.90;;;;;;5057022;28;20011;-95
2022/08/20 01:17:01;;;;;;;;;;;19.40;89.40;;;;;;5075249;28;19984;-95
2022/08/20 01:19:56;;;;;;;;;;;19.30;89.20;;;;;;5073755;28;19949;-95
2022/08/20 01:25:27;;;;;;;;;;;19.30;89.50;;;;;;5074692;28;19996;-94
2022/08/20 01:27:53;;;;;;;;;;;19.30;89.60;;;;;;5057240;28;19943;-94
2022/08/20 01:30:19;;;;;;;;;;;19.30;89.50;;;;;;5056794;28;20002;-95
2022/08/20 01:32:45;;;;;;;;;;;19.30;89.40;;;;;;5074774;28;20345;-94
2022/08/20 01:35:11;;;;;;;;;;;19.20;89.40;;;;;;5056975;28;19939;-94
2022/08/20 01:37:37;;;;;;;;;;;19.20;89.50;;;;;;5074414;28;19958;-94
2022/08/20 01:40:07;;;;;;;;;;;19.10;89.50;;;;;;5074437;28;19935;-94
2022/08/20 01:42:37;;;;;;;;;;;19.10;89.20;;;;;;5074365;28;19948;-94
2022/08/20 01:45:04;;;;;;;;;;;19.20;89.00;;;;;;5056537;28;19995;-95
2022/08/20 01:47:31;;;;;;;;;;;19.20;88.70;;;;;;5056618;28;19952;-94
2022/08/20 01:49:59;;;;;;;;;;;19.30;88.60;;;;;;5056709;28;19963;-94
2022/08/20 01:52:28;;;;;;;;;;;19.20;88.70;;;;;;5056631;28;19966;-95
2022/08/20 01:54:54;;;;;;;;;;;19.20;88.70;;;;;;5056625;28;19940;-94
2022/08/20 01:57:23;;;;;;;;;;;19.30;88.70;;;;;;5056637;28;20310;-95
2022/08/20 01:59:49;;;;;;;;;;;19.30;88.40;;;;;;5074460;28;19948;-95
2022/08/20 02:02:15;;;;;;;;;;;19.30;88.10;;;;;;5056115;28;19941;-94
2022/08/20 02:04:41;;;;;;;;;;;19.40;87.80;;;;;;5056015;28;20318;-94
2022/08/20 02:07:11;;;;;;;;;;;19.40;87.50;;;;;;5074419;28;19940;-94
2022/08/20 02:09:38;;;;;;;;;;;19.30;87.70;;;;;;5055944;28;20105;-95
2022/08/20 02:12:04;;;;;;;;;;;19.30;87.70;;;;;;5074192;28;19945;-94
2022/08/20 02:14:31;;;;;;;;;;;19.30;87.40;;;;;;5073858;28;19959;-95
2022/08/20 02:17:03;;;;;;;;;;;19.40;87.10;;;;;;5073980;28;19938;-95
2022/08/20 02:19:40;;;;;;;;;;;19.50;87.00;;;;;;5056113;28;20392;-94
2022/08/20 02:22:09;;;;;;;;;;;19.40;87.20;;;;;;5053030;28;20054;-94
2022/08/20 02:24:35;;;;;;;;;;;19.40;87.50;;;;;;5054287;28;19940;-94
2022/08/20 02:27:01;;;;;;;;;;;19.30;87.90;;;;;;5052702;28;19945;-95
2022/08/20 02:29:27;;;;;;;;;;;19.30;88.00;;;;;;5053756;28;20022;-94
2022/08/20 02:31:53;;;;;;;;;;;19.30;88.20;;;;;;5053922;28;19945;-95
2022/08/20 02:34:19;;;;;;;;;;;19.30;88.20;;;;;;5053807;28;19948;-94
2022/08/20 02:36:48;;;;;;;;;;;19.20;88.00;;;;;;5052779;28;20371;-95
2022/08/20 02:39:14;;;;;;;;;;;19.20;87.80;;;;;;5054230;28;19983;-96
2022/08/20 02:41:40;;;;;;;;;;;19.20;87.50;;;;;;5052734;28;19982;-95
2022/08/20 02:44:06;;;;;;;;;;;19.20;87.90;;;;;;5052777;28;19993;-94
2022/08/20 02:46:32;;;;;;;;;;;19.20;88.00;;;;;;5053679;28;19946;-94
2022/08/20 02:48:58;;;;;;;;;;;19.20;88.30;;;;;;5053584;28;19963;-95
2022/08/20 02:51:24;;;;;;;;;;;19.20;87.90;;;;;;5053600;28;20038;-95
2022/08/20 02:53:50;;;;;;;;;;;19.20;87.30;;;;;;5053618;28;19977;-94
2022/08/20 02:56:16;;;;;;;;;;;19.30;87.40;;;;;;5053504;28;20465;-94
2022/08/20 02:58:42;;;;;;;;;;;19.30;87.70;;;;;;5054291;28;20531;-94
2022/08/20 03:01:11;;;;;;;;;;;19.20;87.70;;;;;;5057511;28;20414;-94
2022/08/20 03:03:37;;;;;;;;;;;19.00;88.00;;;;;;5057691;28;19935;-94
2022/08/20 03:06:03;;;;;;;;;;;18.90;88.40;;;;;;5057434;28;19943;-94
2022/08/20 03:08:29;;;;;;;;;;;18.90;88.60;;;;;;5057243;28;19968;-94
2022/08/20 03:10:55;;;;;;;;;;;18.90;88.60;;;;;;5056158;28;19944;-94
2022/08/20 03:13:22;;;;;;;;;;;18.90;88.70;;;;;;5057334;28;19942;-94
2022/08/20 03:15:49;;;;;;;;;;;19.00;88.40;;;;;;5057374;28;19936;-94
2022/08/20 03:18:16;;;;;;;;;;;19.00;88.30;;;;;;5057264;28;20406;-94
2022/08/20 03:20:41;;;;;;;;;;;19.00;88.30;;;;;;5062403;28;19972;-94
2022/08/20 03:23:07;;;;;;;;;;;18.80;88.80;;;;;;5059136;28;19949;-95
2022/08/20 03:25:32;;;;;;;;;;;18.70;89.20;;;;;;5077189;28;19944;-94
2022/08/20 03:27:58;;;;;;;;;;;18.70;89.20;;;;;;5058948;28;20345;-94
2022/08/20 03:30:28;;;;;;;;;;;18.80;89.40;;;;;;5076865;28;20015;-94
2022/08/20 03:32:54;;;;;;;;;;;18.80;89.10;;;;;;5076838;28;19935;-94
2022/08/20 03:35:21;;;;;;;;;;;18.90;88.80;;;;;;5058834;28;19947;-95
2022/08/20 03:37:46;;;;;;;;;;;18.90;88.70;;;;;;5076693;28;19953;-94
2022/08/20 03:40:15;;;;;;;;;;;18.90;88.90;;;;;;5058666;28;19945;-94
2022/08/20 03:42:40;;;;;;;;;;;18.80;89.00;;;;;;5076684;28;20019;-94
2022/08/20 03:45:07;;;;;;;;;;;18.80;89.30;;;;;;5076678;28;19971;-94
2022/08/20 03:47:33;;;;;;;;;;;18.80;89.90;;;;;;5076533;28;20307;-95
2022/08/20 03:49:59;;;;;;;;;;;18.80;89.70;;;;;;5076508;28;19962;-94
2022/08/20 03:52:26;;;;;;;;;;;18.80;89.10;;;;;;5076570;28;19948;-93
2022/08/20 03:54:52;;;;;;;;;;;18.80;88.70;;;;;;5076397;28;20005;-94
2022/08/20 03:57:17;;;;;;;;;;;18.80;88.50;;;;;;5076404;28;19938;-95
2022/08/20 03:59:43;;;;;;;;;;;18.80;88.80;;;;;;5076404;28;19942;-94
2022/08/20 04:02:10;;;;;;;;;;;18.80;89.00;;;;;;5076427;28;19980;-94
2022/08/20 04:04:35;;;;;;;;;;;18.60;89.00;;;;;;5058376;28;19940;-94
2022/08/20 04:07:09;;;;;;;;;;;18.40;89.80;;;;;;5076337;28;19946;-94
2022/08/20 04:09:35;;;;;;;;;;;18.30;90.40;;;;;;5057643;28;19970;-94
2022/08/20 04:12:01;;;;;;;;;;;18.30;90.90;;;;;;5075494;28;20382;-94
2022/08/20 04:14:27;;;;;;;;;;;18.30;91.20;;;;;;5076139;28;19941;-94
2022/08/20 04:16:52;;;;;;;;;;;18.40;91.30;;;;;;5076048;28;19992;-94
2022/08/20 04:19:18;;;;;;;;;;;18.40;91.10;;;;;;5076167;28;20030;-94
2022/08/20 04:21:47;;;;;;;;;;;18.50;91.10;;;;;;5058023;28;19982;-94
2022/08/20 04:24:14;;;;;;;;;;;18.60;91.00;;;;;;5057715;28;20048;-94
2022/08/20 04:26:40;;;;;;;;;;;18.60;90.70;;;;;;5075980;28;20406;-94
2022/08/20 04:29:06;;;;;;;;;;;18.60;90.10;;;;;;5075904;28;20006;-94
2022/08/20 04:31:32;;;;;;;;;;;18.60;90.00;;;;;;5075916;28;19938;-94
2022/08/20 04:33:59;;;;;;;;;;;18.40;90.20;;;;;;5075855;28;19937;-94
2022/08/20 04:36:24;;;;;;;;;;;18.40;90.10;;;;;;5075728;28;20052;-95
2022/08/20 04:38:50;;;;;;;;;;;18.40;90.40;;;;;;5075671;28;19975;-94
2022/08/20 04:41:16;;;;;;;;;;;18.50;90.50;;;;;;5075723;28;19947;-94
2022/08/20 04:43:41;;;;;;;;;;;18.50;90.60;;;;;;5057685;28;19945;-94
2022/08/20 04:46:08;;;;;;;;;;;18.60;90.40;;;;;;5075628;28;19944;-94
2022/08/20 04:48:34;;;;;;;;;;;18.60;89.80;;;;;;5057302;28;20051;-94
2022/08/20 04:51:01;;;;;;;;;;;18.70;89.30;;;;;;5075401;28;20306;-94
2022/08/20 04:53:27;;;;;;;;;;;18.70;89.20;;;;;;5078524;28;19946;-93
2022/08/20 04:55:54;;;;;;;;;;;18.80;88.90;;;;;;5078263;28;19945;-93
2022/08/20 04:58:21;;;;;;;;;;;18.90;88.40;;;;;;5078659;28;20005;-94
2022/08/20 05:00:48;;;;;;;;;;;19.00;88.10;;;;;;5078138;28;19990;-95
2022/08/20 05:03:14;;;;;;;;;;;19.10;88.10;;;;;;5077947;28;19937;-94
2022/08/20 05:05:40;;;;;;;;;;;19.20;88.50;;;;;;5078490;28;19955;-94
2022/08/20 05:08:06;;;;;;;;;;;19.20;87.90;;;;;;5078397;28;19968;-93
2022/08/20 05:10:31;;;;;;;;;;;19.20;87.80;;;;;;5059162;28;19943;-94
2022/08/20 05:12:57;;;;;;;;;;;19.10;88.30;;;;;;5057236;28;20448;-94
2022/08/20 05:15:24;;;;;;;;;;;19.10;88.60;;;;;;5075227;28;20020;-94
2022/08/20 05:17:53;;;;;;;;;;;19.10;88.60;;;;;;5075150;28;20071;-94
2022/08/20 05:20:19;;;;;;;;;;;19.10;88.60;;;;;;5075023;28;20026;-94
2022/08/20 05:22:47;;;;;;;;;;;19.00;89.00;;;;;;5074785;28;19970;-94
2022/08/20 05:25:13;;;;;;;;;;;19.20;89.40;;;;;;5075346;28;19942;-94
2022/08/20 05:27:40;;;;;;;;;;;19.30;89.30;;;;;;5075144;28;19951;-94
2022/08/20 05:30:08;;;;;;;;;;;19.40;89.00;;;;;;5057241;28;19964;-94
2022/08/20 05:32:35;;;;;;;;;;;19.50;88.60;;;;;;5075261;28;19943;-94
2022/08/20 05:35:01;;;;;;;;;;;19.60;88.20;;;;;;5075028;28;19935;-95
2022/08/20 05:37:28;;;;;;;;;;;19.70;88.00;;;;;;5074888;28;19961;-95
2022/08/20 05:39:54;;;;;;;;;;;19.70;88.30;;;;;;5074762;28;19990;-94
2022/08/20 05:42:20;;;;;;;;;;;19.80;88.30;;;;;;5074409;28;19948;-94
2022/08/20 05:44:46;;;;;;;;;;;19.90;87.90;;;;;;5074386;28;19935;-95
2022/08/20 05:47:12;;;;;;;;;;;20.00;88.00;;;;;;5056323;28;19944;-94
2022/08/20 05:49:37;;;;;;;;;;;20.10;87.40;;;;;;5074158;28;20008;-94
2022/08/20 05:52:04;;;;;;;;;;;20.20;87.40;;;;;;5074160;28;20032;-94
2022/08/20 05:54:30;;;;;;;;;;;20.30;87.30;;;;;;5074160;28;20309;-94
2022/08/20 05:56:56;;;;;;;;;;;20.30;86.70;;;;;;5074001;28;19937;-94
2022/08/20 05:59:23;;;;;;;;;;;20.40;86.60;;;;;;5074005;28;19949;-94
2022/08/20 06:01:51;;;;;;;;;;;20.40;86.00;;;;;;5073571;28;20646;-93
2022/08/20 06:04:27;;;;;;;;;;;20.50;85.30;;;;;;5056014;28;19970;-94
2022/08/20 06:07:00;;;;;;;;;;;20.60;85.20;;;;;;5074238;28;19939;-93
2022/08/20 06:09:26;;;;;;;;;;;20.60;85.30;;;;;;5073875;28;19959;-94
2022/08/20 06:11:51;;;;;;;;;;;20.70;85.60;;;;;;5074019;28;19941;-95
2022/08/20 06:14:17;;;;;;;;;;;20.80;85.50;;;;;;5055736;28;19964;-93
2022/08/20 06:16:43;;;;;;;;;;;21.00;85.20;;;;;;5073917;28;20394;-94
2022/08/20 06:19:09;;;;;;;;;;;21.10;84.50;;;;;;5073849;28;19945;-94
2022/08/20 06:21:35;;;;;;;;;;;21.20;84.00;;;;;;5073727;28;20646;-94
2022/08/20 06:24:00;;;;;;;;;;;21.30;83.20;;;;;;5073901;28;20419;-94
2022/08/20 06:26:26;;;;;;;;;;;21.30;82.10;;;;;;5073805;28;19993;-94
2022/08/20 06:28:52;;;;;;;;;;;21.50;80.20;;;;;;5073608;28;20414;-94
2022/08/20 06:31:17;;;;;;;;;;;21.60;80.00;;;;;;5056112;28;20044;-94
2022/08/20 06:33:43;;;;;;;;;;;21.80;81.20;;;;;;5073027;28;20369;-94
2022/08/20 06:36:09;;;;;;;;;;;21.90;81.10;;;;;;5073735;28;19965;-95
2022/08/20 06:38:35;;;;;;;;;;;22.00;80.50;;;;;;5055951;28;19940;-94
2022/08/20 06:41:01;;;;;;;;;;;22.10;80.30;;;;;;5056002;28;19982;-95
2022/08/20 06:43:27;;;;;;;;;;;22.20;78.80;;;;;;5055963;28;19984;-94
2022/08/20 06:45:56;;;;;;;;;;;22.30;77.20;;;;;;5073725;28;20001;-94
2022/08/20 06:48:22;;;;;;;;;;;22.40;77.40;;;;;;5073558;28;19958;-94
2022/08/20 06:50:47;;;;;;;;;;;22.50;77.80;;;;;;5073570;28;19984;-94
2022/08/20 06:53:15;;;;;;;;;;;22.60;76.80;;;;;;5073635;28;20419;-94
2022/08/20 06:55:43;;;;;;;;;;;22.70;77.50;;;;;;5073587;28;19936;-94
2022/08/20 06:58:10;;;;;;;;;;;22.80;77.40;;;;;;5073369;28;19976;-94
2022/08/20 07:00:36;;;;;;;;;;;22.80;77.00;;;;;;5073625;28;19950;-94
2022/08/20 07:03:02;;;;;;;;;;;22.90;77.60;;;;;;5055587;28;20045;-93
2022/08/20 07:05:28;;;;;;;;;;;22.90;78.40;;;;;;5073410;28;19993;-94
2022/08/20 07:07:53;;;;;;;;;;;22.80;78.20;;;;;;5073251;28;19937;-94
2022/08/20 07:10:19;;;;;;;;;;;22.80;78.70;;;;;;5073367;28;19943;-94
2022/08/20 07:12:45;;;;;;;;;;;22.60;78.90;;;;;;5073399;28;20422;-94
2022/08/20 07:15:12;;;;;;;;;;;22.60;79.40;;;;;;5073389;28;19986;-94
2022/08/20 07:17:42;;;;;;;;;;;22.70;80.00;;;;;;5073333;28;19946;-94
2022/08/20 07:20:12;;;;;;;;;;;22.70;78.60;;;;;;5072913;28;20041;-94
2022/08/20 07:22:38;;;;;;;;;;;22.70;80.40;;;;;;5073189;28;20426;-94
2022/08/20 07:25:05;;;;;;;;;;;22.80;77.60;;;;;;5073024;28;20059;-94
2022/08/20 07:27:30;;;;;;;;;;;22.80;77.50;;;;;;5072973;28;19968;-94
2022/08/20 07:32:40;;;;;;;;;;;22.80;76.90;;;;;;5073058;28;20312;-94
2022/08/20 07:35:08;;;;;;;;;;;22.80;77.90;;;;;;5073208;28;20026;-95
2022/08/20 07:37:38;;;;;;;;;;;22.90;78.90;;;;;;5055063;28;19959;-94
2022/08/20 07:40:04;;;;;;;;;;;22.80;77.60;;;;;;5073186;28;20059;-94
2022/08/20 07:42:30;;;;;;;;;;;22.90;78.60;;;;;;5073053;28;19945;-95
2022/08/20 07:44:55;;;;;;;;;;;22.90;77.60;;;;;;5074218;28;20349;-94
2022/08/20 07:47:21;;;;;;;;;;;23.00;77.30;;;;;;5058877;28;19939;-94
2022/08/20 07:49:47;;;;;;;;;;;23.00;77.10;;;;;;5058679;28;19965;-94
2022/08/20 07:52:12;;;;;;;;;;;23.10;73.60;;;;;;5076769;28;19942;-94
2022/08/20 07:54:38;;;;;;;;;;;23.20;76.20;;;;;;5076776;28;19947;-94
2022/08/20 07:57:04;;;;;;;;;;;23.20;74.90;;;;;;5076860;28;19945;-94
2022/08/20 07:59:30;;;;;;;;;;;23.20;75.50;;;;;;5076673;28;20331;-94
2022/08/20 08:01:56;;;;;;;;;;;23.10;76.10;;;;;;5076687;28;19940;-95
2022/08/20 08:04:23;;;;;;;;;;;23.10;77.10;;;;;;5076398;28;19944;-95
2022/08/20 08:06:49;;;;;;;;;;;23.10;76.60;;;;;;5076589;28;19938;-94
2022/08/20 08:09:15;;;;;;;;;;;23.20;76.70;;;;;;5058308;28;20415;-94
2022/08/20 08:11:43;;;;;;;;;;;23.20;77.70;;;;;;5058432;28;19950;-94
2022/08/20 08:14:10;;;;;;;;;;;23.30;77.70;;;;;;5058334;28;20424;-94
2022/08/20 08:16:36;;;;;;;;;;;23.40;75.90;;;;;;5076297;28;20003;-95
2022/08/20 08:19:03;;;;;;;;;;;23.50;75.50;;;;;;5076146;28;19946;-94
2022/08/20 08:21:29;;;;;;;;;;;23.70;75.00;;;;;;5075892;28;19996;-94
2022/08/20 08:23:55;;;;;;;;;;;23.90;70.70;;;;;;5076524;28;20474;-95
2022/08/20 08:26:21;;;;;;;;;;;24.10;68.70;;;;;;5058614;28;19943;-94
2022/08/20 08:31:50;;;;;;;;;;;24.30;68.10;;;;;;5076033;28;19950;-95
2022/08/20 08:34:16;;;;;;;;;;;24.40;67.50;;;;;;5058498;28;19962;-94
2022/08/20 08:36:44;;;;;;;;;;;24.50;66.60;;;;;;5057929;28;20409;-95
2022/08/20 08:39:09;;;;;;;;;;;24.50;67.30;;;;;;5076015;28;19941;-95
2022/08/20 08:41:39;;;;;;;;;;;24.60;67.20;;;;;;5075807;28;19939;-94
2022/08/20 08:44:11;;;;;;;;;;;24.70;66.80;;;;;;5075646;28;19945;-95
2022/08/20 08:46:42;;;;;;;;;;;24.70;66.80;;;;;;5057237;28;19944;-95
2022/08/20 08:49:20;;;;;;;;;;;24.80;66.20;;;;;;5075596;28;19962;-95
2022/08/20 08:51:55;;;;;;;;;;;24.90;67.90;;;;;;5056973;28;20016;-95
2022/08/20 08:54:23;;;;;;;;;;;25.00;68.40;;;;;;5075782;28;19936;-94
2022/08/20 08:56:52;;;;;;;;;;;25.10;65.70;;;;;;5074730;28;19994;-94
2022/08/20 08:59:20;;;;;;;;;;;25.20;66.40;;;;;;5075368;28;19979;-94
2022/08/20 09:01:52;;;;;;;;;;;25.30;66.80;;;;;;5075352;28;19982;-95
2022/08/20 09:04:20;;;;;;;;;;;25.30;66.70;;;;;;5075264;28;20412;-94
2022/08/20 09:06:47;;;;;;;;;;;25.50;68.60;;;;;;5057120;28;19962;-94
2022/08/20 09:09:24;;;;;;;;;;;25.70;65.70;;;;;;5075387;28;19962;-93
2022/08/20 09:11:52;;;;;;;;;;;25.80;65.10;;;;;;5075711;28;19994;-95
2022/08/20 09:14:18;;;;;;;;;;;25.90;62.50;;;;;;5058031;28;19994;-95
2022/08/20 09:16:45;;;;;;;;;;;26.10;58.70;;;;;;5075772;28;19981;-95
2022/08/20 09:19:11;;;;;;;;;;;26.10;57.10;;;;;;5075657;28;19947;-95
2022/08/20 09:21:37;;;;;;;;;;;26.20;58.00;;;;;;5009849;22;19985;-96
2022/08/20 09:24:03;;;;;;;;;;;26.20;58.20;;;;;;4977155;28;19989;-95
2022/08/20 09:26:29;;;;;;;;;;;26.30;59.70;;;;;;4977149;28;19939;-95
2022/08/20 09:28:55;;;;;;;;;;;26.50;60.20;;;;;;4977344;28;20387;-95
2022/08/20 09:31:23;;;;;;;;;;;26.60;62.60;;;;;;4975457;28;19941;-96
2022/08/20 09:33:49;;;;;;;;;;;26.70;63.00;;;;;;4975994;28;19979;-96
2022/08/20 09:36:15;;;;;;;;;;;26.70;59.60;;;;;;5011111;28;19959;-96
2022/08/20 09:38:40;;;;;;;;;;;26.80;59.40;;;;;;5075422;28;20012;-96
2022/08/20 09:41:06;;;;;;;;;;;26.80;62.80;;;;;;5074621;28;19973;-94
2022/08/20 09:43:32;;;;;;;;;;;26.90;62.90;;;;;;5074502;28;19941;-95
2022/08/20 09:45:58;;;;;;;;;;;27.00;61.90;;;;;;5076167;28;19935;-95
2022/08/20 09:48:24;;;;;;;;;;;27.00;60.50;;;;;;5076485;28;19956;-96
2022/08/20 09:50:50;;;;;;;;;;;27.10;61.80;;;;;;5074646;28;20320;-95
2022/08/20 09:53:17;;;;;;;;;;;27.10;57.70;;;;;;5076892;28;20035;-95
2022/08/20 09:55:44;;;;;;;;;;;27.20;56.80;;;;;;5076603;28;19947;-95
2022/08/20 09:58:28;;;;;;;;;;;27.20;58.20;;;;;;5076091;28;19951;-95
2022/08/20 10:00:55;;;;;;;;;;;27.30;58.20;;;;;;5075558;28;19944;-96
2022/08/20 10:03:21;;;;;;;;;;;27.30;56.90;;;;;;5074090;28;19949;-95
2022/08/20 10:05:47;;;;;;;;;;;27.40;56.60;;;;;;5075646;28;19943;-95
2022/08/20 10:08:13;;;;;;;;;;;27.40;55.30;;;;;;5074733;28;19939;-95
2022/08/20 10:10:38;;;;;;;;;;;27.50;56.70;;;;;;5075526;28;19945;-96
2022/08/20 10:13:04;;;;;;;;;;;27.60;55.10;;;;;;5074295;28;19940;-96
2022/08/20 10:15:30;;;;;;;;;;;27.70;55.50;;;;;;5075713;28;19978;-95
2022/08/20 10:18:02;;;;;;;;;;;27.80;54.60;;;;;;5075575;28;20300;-94
2022/08/20 10:20:28;;;;;;;;;;;27.90;54.20;;;;;;5074393;28;20037;-96
2022/08/20 10:22:54;;;;;;;;;;;27.90;54.20;;;;;;5075557;28;20347;-96
2022/08/20 10:25:20;;;;;;;;;;;28.10;52.20;;;;;;5075162;28;19951;-95
2022/08/20 10:27:46;;;;;;;;;;;28.20;55.90;;;;;;5074683;28;19947;-95
2022/08/20 10:30:12;;;;;;;;;;;28.40;55.40;;;;;;5075926;28;20014;-96
2022/08/20 10:32:38;;;;;;;;;;;28.50;51.00;;;;;;5075516;28;20427;-96
2022/08/20 10:35:04;;;;;;;;;;;28.40;50.70;;;;;;5075842;28;20300;-95
2022/08/20 10:37:30;;;;;;;;;;;28.50;51.40;;;;;;5075486;28;20511;-95
2022/08/20 10:39:55;;;;;;;;;;;28.60;50.80;;;;;;5075682;28;19979;-95
2022/08/20 10:42:21;;;;;;;;;;;28.80;52.10;;;;;;5076040;28;19949;-95
2022/08/20 10:44:48;;;;;;;;;;;28.90;49.30;;;;;;5076042;28;19943;-96
2022/08/20 10:47:19;;;;;;;;;;;28.90;50.70;;;;;;5075334;28;19957;-95
2022/08/20 10:49:46;;;;;;;;;;;29.00;50.90;;;;;;5076733;28;20006;-96
2022/08/20 10:52:12;;;;;;;;;;;29.00;47.90;;;;;;5075192;28;19954;-96
2022/08/20 10:54:41;;;;;;;;;;;29.20;49.90;;;;;;5076132;28;20024;-95
2022/08/20 10:57:18;;;;;;;;;;;29.20;48.30;;;;;;5074695;28;19940;-95
2022/08/20 10:59:45;;;;;;;;;;;29.40;50.70;;;;;;5075226;28;20394;-96
2022/08/20 11:02:12;;;;;;;;;;;29.60;49.90;;;;;;5074794;28;19941;-96
2022/08/20 11:04:39;;;;;;;;;;;29.70;48.30;;;;;;5075039;28;20056;-95
2022/08/20 11:07:25;;;;;;;;;;;29.80;46.00;;;;;;5076070;28;20387;-95
2022/08/20 11:09:51;;;;;;;;;;;29.90;45.90;;;;;;5074067;28;20412;-95
2022/08/20 11:12:18;;;;;;;;;;;30.10;48.50;;;;;;5075453;28;20056;-95
2022/08/20 11:14:44;;;;;;;;;;;30.20;51.40;;;;;;5074953;28;19950;-95
2022/08/20 11:17:10;;;;;;;;;;;30.30;44.60;;;;;;5077166;28;19975;-95
2022/08/20 11:19:42;;;;;;;;;;;30.40;45.60;;;;;;5076072;28;20325;-95
2022/08/20 11:22:09;;;;;;;;;;;30.50;44.80;;;;;;5078350;28;19983;-95
2022/08/20 11:24:35;;;;;;;;;;;30.60;45.70;;;;;;5079592;28;20039;-96
2022/08/20 11:27:01;;;;;;;;;;;30.70;46.50;;;;;;5079061;28;20394;-95
2022/08/20 11:29:27;;;;;;;;;;;30.80;44.90;;;;;;5079740;28;19956;-95
2022/08/20 11:31:53;;;;;;;;;;;31.00;44.40;;;;;;5079621;28;19944;-95
2022/08/20 11:34:18;;;;;;;;;;;31.10;43.60;;;;;;5077954;28;20040;-96
2022/08/20 11:36:45;;;;;;;;;;;31.10;44.30;;;;;;5079074;28;19965;-96
2022/08/20 11:39:11;;;;;;;;;;;31.10;44.40;;;;;;5078150;28;19986;-96
2022/08/20 11:41:37;;;;;;;;;;;31.20;43.60;;;;;;5078765;28;19938;-95
2022/08/20 11:44:03;;;;;;;;;;;31.40;42.10;;;;;;5076906;28;19941;-95
2022/08/20 11:46:28;;;;;;;;;;;31.50;42.40;;;;;;5079505;28;20004;-96
2022/08/20 11:48:54;;;;;;;;;;;31.60;41.10;;;;;;5079782;28;19980;-95
2022/08/20 11:51:20;;;;;;;;;;;31.60;40.90;;;;;;5078479;28;19958;-95
2022/08/20 11:53:46;;;;;;;;;;;31.50;40.80;;;;;;5078393;28;19935;-96
2022/08/20 11:56:12;;;;;;;;;;;31.60;40.20;;;;;;5077839;28;19953;-96
2022/08/20 11:58:38;;;;;;;;;;;31.60;40.70;;;;;;5075972;28;19944;-94
2022/08/20 12:01:04;;;;;;;;;;;31.20;40.90;;;;;;5075494;28;19947;-96
2022/08/20 12:03:29;;;;;;;;;;;31.30;41.90;;;;;;5076272;28;19939;-95
2022/08/20 12:05:56;;;;;;;;;;;31.50;40.80;;;;;;5077232;28;19943;-96
2022/08/20 12:08:22;;;;;;;;;;;31.60;41.00;;;;;;5075863;28;20310;-95
2022/08/20 12:10:47;;;;;;;;;;;32.10;41.40;;;;;;5077323;28;19940;-96
2022/08/20 12:13:13;;;;;;;;;;;32.30;40.50;;;;;;5075917;28;19949;-95
2022/08/20 12:15:39;;;;;;;;;;;32.80;39.00;;;;;;5076587;28;19944;-96
2022/08/20 12:18:07;;;;;;;;;;;33.30;39.40;;;;;;5076362;28;19952;-96
2022/08/20 12:20:33;;;;;;;;;;;33.60;37.90;;;;;;5076311;28;20029;-96
2022/08/20 12:22:59;;;;;;;;;;;33.80;36.00;;;;;;5076699;28;19937;-96
2022/08/20 12:25:25;;;;;;;;;;;34.20;36.40;;;;;;5076070;28;19958;-96
2022/08/20 12:27:50;;;;;;;;;;;34.10;37.40;;;;;;5076671;28;19944;-95
2022/08/20 12:30:18;;;;;;;;;;;34.50;36.00;;;;;;5074800;28;20066;-96
2022/08/20 12:32:44;;;;;;;;;;;34.90;32.40;;;;;;5075215;28;19948;-96
2022/08/20 12:35:10;;;;;;;;;;;34.90;31.90;;;;;;5074711;28;19947;-96
2022/08/20 12:37:37;;;;;;;;;;;34.90;31.90;;;;;;5074870;28;20052;-96
2022/08/20 12:40:05;;;;;;;;;;;34.60;33.60;;;;;;5074825;28;19970;-96
2022/08/20 12:42:30;;;;;;;;;;;34.20;32.90;;;;;;5076005;28;20033;-96
2022/08/20 12:44:56;;;;;;;;;;;34.80;32.40;;;;;;5075888;28;19997;-95
2022/08/20 12:47:27;;;;;;;;;;;35.20;33.50;;;;;;5075839;28;19937;-96
2022/08/20 12:49:59;;;;;;;;;;;35.70;32.10;;;;;;5074737;28;19982;-96
2022/08/20 12:52:25;;;;;;;;;;;36.60;32.70;;;;;;5075952;28;20021;-96
2022/08/20 12:54:51;;;;;;;;;;;37.40;30.00;;;;;;5074451;28;20046;-96
2022/08/20 12:57:29;;;;;;;;;;;38.20;28.50;;;;;;5074139;28;19994;-96
2022/08/20 12:59:55;;;;;;;;;;;39.20;27.90;;;;;;5074659;28;19940;-96
2022/08/20 13:02:21;;;;;;;;;;;39.70;27.30;;;;;;5075820;28;20031;-96
2022/08/20 13:04:46;;;;;;;;;;;40.60;25.50;;;;;;5075539;28;20017;-96
2022/08/20 13:07:13;;;;;;;;;;;41.20;24.30;;;;;;5075471;28;19946;-96
2022/08/20 13:09:38;;;;;;;;;;;40.20;25.30;;;;;;5074258;28;20027;-96
2022/08/20 13:12:04;;;;;;;;;;;39.30;25.00;;;;;;5075601;28;19974;-96
2022/08/20 13:14:30;;;;;;;;;;;39.10;24.70;;;;;;5074085;28;20505;-96
2022/08/20 13:16:56;;;;;;;;;;;40.20;24.90;;;;;;5073835;28;19949;-96
2022/08/20 13:19:22;;;;;;;;;;;40.20;24.30;;;;;;5075411;28;19941;-96
2022/08/20 13:21:48;;;;;;;;;;;39.00;23.60;;;;;;5074246;28;19983;-96
2022/08/20 13:24:14;;;;;;;;;;;38.40;24.50;;;;;;5074263;28;20388;-96
2022/08/20 13:26:39;;;;;;;;;;;36.80;30.10;;;;;;5074601;28;20402;-96
2022/08/20 13:29:05;;;;;;;;;;;35.10;30.80;;;;;;5075992;28;19967;-96
2022/08/20 13:31:31;;;;;;;;;;;34.10;35.00;;;;;;5075779;28;19943;-96
2022/08/20 13:33:56;;;;;;;;;;;33.40;33.90;;;;;;5077302;28;19985;-96
2022/08/20 13:36:22;;;;;;;;;;;33.00;36.30;;;;;;5078281;28;19960;-96
2022/08/20 13:38:48;;;;;;;;;;;32.70;34.50;;;;;;5078770;28;19941;-96
2022/08/20 13:41:13;;;;;;;;;;;32.40;35.60;;;;;;5076973;28;20038;-96
2022/08/20 13:43:39;;;;;;;;;;;32.20;35.50;;;;;;5076443;28;19940;-96
2022/08/20 13:46:05;;;;;;;;;;;32.00;38.60;;;;;;5076333;28;20471;-96
2022/08/20 13:48:31;;;;;;;;;;;31.90;41.90;;;;;;5077233;28;19978;-95
2022/08/20 13:50:57;;;;;;;;;;;31.60;40.00;;;;;;5077699;28;19945;-96
2022/08/20 13:53:23;;;;;;;;;;;31.20;41.20;;;;;;5076960;28;20326;-96
2022/08/20 13:55:49;;;;;;;;;;;31.00;43.00;;;;;;5076255;28;19944;-96
2022/08/20 13:58:16;;;;;;;;;;;30.70;44.00;;;;;;5078474;28;19957;-96
2022/08/20 14:00:41;;;;;;;;;;;30.50;45.10;;;;;;5078061;28;19952;-96
2022/08/20 14:03:07;;;;;;;;;;;30.40;46.10;;;;;;5077214;28;19943;-96
2022/08/20 14:05:33;;;;;;;;;;;30.30;46.40;;;;;;5076951;28;19944;-96
2022/08/20 14:08:08;;;;;;;;;;;30.30;48.40;;;;;;5077944;28;19937;-96
2022/08/20 14:10:34;;;;;;;;;;;30.20;49.50;;;;;;5078672;28;19939;-96
2022/08/20 14:13:02;;;;;;;;;;;30.20;49.60;;;;;;5077476;28;19941;-96
2022/08/20 14:15:27;;;;;;;;;;;30.30;50.80;;;;;;5077772;28;20002;-96
2022/08/20 14:17:54;;;;;;;;;;;30.60;49.30;;;;;;5078352;28;19939;-95
2022/08/20 14:20:21;;;;;;;;;;;30.80;48.20;;;;;;5077965;28;20004;-96
2022/08/20 14:22:46;;;;;;;;;;;31.70;45.20;;;;;;5074934;28;19951;-96
2022/08/20 14:25:13;;;;;;;;;;;33.00;42.30;;;;;;5073870;28;19945;-96